Time;durP1;ratioP1;P1;durP2;ratioP2;P2;SDS_P1;SDS_P2;PMS_P1;PMS_P2;Temp;Humidity;BMP_temperature;BMP_pressure;BME280_temperature;BME280_humidity;BME280_pressure;Samples;Min_cycle;Max_cycle;Signal;HPM_P1;HPM_P2
2023/10/04 00:00:35;;;;;;;7.70;4.32;;;;;;;;;;10444811;28;20033;-82
2023/10/04 00:05:37;;;;;;;6.18;3.30;;;;;;;;;;10444552;28;20064;-84
2023/10/04 00:10:45;;;;;;;6.28;3.42;;;;;;;;;;10444398;28;20098;-83
2023/10/04 00:15:46;;;;;;;9.45;3.47;;;;;;;;;;10445416;28;20123;-82
2023/10/04 00:20:47;;;;;;;9.30;3.88;;;;;;;;;;10426673;28;20105;-83
2023/10/04 00:25:48;;;;;;;6.80;3.92;;;;;;;;;;10442844;28;20047;-82
2023/10/04 00:30:49;;;;;;;9.00;3.53;;;;;;;;;;10423385;28;20429;-83
2023/10/04 00:35:57;;;;;;;5.70;3.25;;;;;;;;;;10429159;28;20091;-83
2023/10/04 00:40:58;;;;;;;5.82;3.08;;;;;;;;;;10444550;28;20056;-84
2023/10/04 00:45:59;;;;;;;4.18;2.33;;;;;;;;;;10442859;28;20040;-83
2023/10/04 00:51:00;;;;;;;4.80;2.67;;;;;;;;;;10443968;28;20111;-82
2023/10/04 00:56:02;;;;;;;3.75;2.03;;;;;;;;;;10442781;28;20032;-84
2023/10/04 01:01:06;;;;;;;4.13;2.10;;;;;;;;;;10443028;28;20476;-83
2023/10/04 01:06:09;;;;;;;2.97;2.17;;;;;;;;;;10442335;28;20029;-82
2023/10/04 01:11:10;;;;;;;3.80;2.47;;;;;;;;;;10442095;28;20411;-83
2023/10/04 01:16:11;;;;;;;3.33;2.00;;;;;;;;;;10425806;28;20037;-83
2023/10/04 01:21:12;;;;;;;3.30;2.03;;;;;;;;;;10425551;28;20033;-83
2023/10/04 01:26:25;;;;;;;4.40;2.40;;;;;;;;;;10441724;28;20480;-83
2023/10/04 01:31:26;;;;;;;4.10;2.20;;;;;;;;;;10442683;28;20073;-83
2023/10/04 01:36:27;;;;;;;3.05;1.88;;;;;;;;;;10442444;28;20400;-83
2023/10/04 01:41:28;;;;;;;4.72;2.03;;;;;;;;;;10424468;28;20039;-83
2023/10/04 01:46:29;;;;;;;3.25;1.75;;;;;;;;;;10447521;28;20075;-83
2023/10/04 01:51:31;;;;;;;3.47;2.20;;;;;;;;;;10432304;28;20051;-83
2023/10/04 01:56:33;;;;;;;8.93;2.75;;;;;;;;;;10449980;28;20043;-83
2023/10/04 02:01:34;;;;;;;3.20;1.85;;;;;;;;;;10450441;28;20372;-84
2023/10/04 02:06:35;;;;;;;4.35;2.25;;;;;;;;;;10430793;28;20067;-83
2023/10/04 02:11:36;;;;;;;3.70;2.17;;;;;;;;;;10446694;28;20037;-84
2023/10/04 02:16:38;;;;;;;4.57;2.15;;;;;;;;;;10448755;28;20029;-83
2023/10/04 02:21:39;;;;;;;4.18;2.00;;;;;;;;;;10449130;28;20025;-83
2023/10/04 02:26:41;;;;;;;4.57;2.00;;;;;;;;;;10448924;28;20025;-83
2023/10/04 02:31:44;;;;;;;6.32;2.10;;;;;;;;;;10448569;28;20057;-83
2023/10/04 02:36:46;;;;;;;4.15;2.08;;;;;;;;;;10482015;23;20059;-83
2023/10/04 02:41:47;;;;;;;5.53;2.38;;;;;;;;;;10487092;28;20024;-83
2023/10/04 02:46:48;;;;;;;4.32;2.20;;;;;;;;;;10489526;28;20033;-83
2023/10/04 02:51:49;;;;;;;3.72;2.15;;;;;;;;;;10490096;28;20036;-83
2023/10/04 02:56:52;;;;;;;4.45;2.60;;;;;;;;;;10486929;28;20033;-83
2023/10/04 03:01:53;;;;;;;7.78;2.45;;;;;;;;;;10470563;28;20071;-83
2023/10/04 03:06:54;;;;;;;4.32;2.35;;;;;;;;;;10486898;28;20101;-84
2023/10/04 03:11:55;;;;;;;5.38;2.20;;;;;;;;;;10487725;28;20040;-83
2023/10/04 03:17:08;;;;;;;3.88;2.53;;;;;;;;;;10476631;28;20059;-86
2023/10/04 03:22:22;;;;;;;5.15;2.55;;;;;;;;;;10484253;28;20039;-84
2023/10/04 03:27:24;;;;;;;6.85;2.75;;;;;;;;;;10463947;28;20113;-85
2023/10/04 03:32:25;;;;;;;4.50;2.88;;;;;;;;;;10487080;28;20033;-89
2023/10/04 03:37:30;;;;;;;5.97;2.40;;;;;;;;;;10468082;28;20450;-84
2023/10/04 03:42:33;;;;;;;6.00;2.92;;;;;;;;;;10486333;28;20113;-80
2023/10/04 03:47:35;;;;;;;5.50;2.53;;;;;;;;;;10468239;28;20024;-84
2023/10/04 03:52:36;;;;;;;5.07;2.13;;;;;;;;;;10484007;28;20387;-85
2023/10/04 03:57:42;;;;;;;5.68;2.30;;;;;;;;;;10485419;28;20041;-85
2023/10/04 04:02:43;;;;;;;6.18;2.50;;;;;;;;;;10486472;28;20126;-85
2023/10/04 04:07:44;;;;;;;7.13;3.22;;;;;;;;;;10484299;28;20025;-85
2023/10/04 04:12:46;;;;;;;7.88;2.97;;;;;;;;;;10476885;23;20079;-86
2023/10/04 04:17:48;;;;;;;8.98;2.30;;;;;;;;;;10484019;28;20037;-84
2023/10/04 04:22:55;;;;;;;3.80;2.40;;;;;;;;;;10482191;28;20029;-84
2023/10/04 04:27:56;;;;;;;7.45;2.92;;;;;;;;;;10445576;28;20063;-85
2023/10/04 04:32:58;;;;;;;9.18;3.05;;;;;;;;;;10442674;28;20573;-84
2023/10/04 04:38:16;;;;;;;9.27;3.70;;;;;;;;;;10443369;28;20131;-84
2023/10/04 04:48:25;;;;;;;9.50;3.42;;;;;;;;;;10444027;28;20033;-83
2023/10/04 04:53:27;;;;;;;7.57;3.10;;;;;;;;;;10444045;28;20032;-84
2023/10/04 04:58:28;;;;;;;8.13;2.78;;;;;;;;;;10425617;28;20037;-83
2023/10/04 05:03:35;;;;;;;6.65;3.28;;;;;;;;;;10464619;23;20403;-85
2023/10/04 05:08:36;;;;;;;7.15;3.17;;;;;;;;;;10485331;28;20052;-84
2023/10/04 05:13:37;;;;;;;7.90;3.20;;;;;;;;;;10485220;28;20025;-83
2023/10/04 05:18:45;;;;;;;12.52;3.20;;;;;;;;;;10486616;28;20044;-82
2023/10/04 05:23:46;;;;;;;7.47;3.28;;;;;;;;;;10474377;28;20029;-84
2023/10/04 05:28:47;;;;;;;9.80;3.38;;;;;;;;;;10492097;28;20028;-83
2023/10/04 05:33:48;;;;;;;11.38;3.60;;;;;;;;;;10491694;28;20028;-83
2023/10/04 05:38:57;;;;;;;8.20;3.70;;;;;;;;;;10532691;28;20055;-83
2023/10/04 05:44:04;;;;;;;7.25;2.88;;;;;;;;;;10533648;28;20039;-83
2023/10/04 05:49:09;;;;;;;11.13;3.30;;;;;;;;;;10533375;28;20032;-83
2023/10/04 05:54:10;;;;;;;7.00;2.90;;;;;;;;;;10533894;28;20039;-83
2023/10/04 05:59:13;;;;;;;5.93;2.45;;;;;;;;;;10533553;28;20138;-83
2023/10/04 06:04:21;;;;;;;6.82;2.78;;;;;;;;;;10533120;28;20637;-85
2023/10/04 06:09:32;;;;;;;8.38;2.92;;;;;;;;;;10532772;28;20084;-83
2023/10/04 06:14:33;;;;;;;4.35;2.40;;;;;;;;;;10531323;28;20032;-84
2023/10/04 06:19:34;;;;;;;5.55;2.40;;;;;;;;;;10531522;28;20044;-84
2023/10/04 06:24:35;;;;;;;6.18;2.60;;;;;;;;;;10532049;28;20016;-83
2023/10/04 06:29:36;;;;;;;7.10;2.28;;;;;;;;;;10530948;28;20468;-83
2023/10/04 06:34:37;;;;;;;6.60;2.42;;;;;;;;;;10531364;28;20024;-83
2023/10/04 06:39:38;;;;;;;4.15;2.05;;;;;;;;;;10531285;28;20040;-83
2023/10/04 06:44:39;;;;;;;5.75;2.00;;;;;;;;;;10518583;28;20115;-83
2023/10/04 06:49:40;;;;;;;4.88;1.90;;;;;;;;;;10530049;28;20475;-84
2023/10/04 06:54:41;;;;;;;4.03;2.30;;;;;;;;;;10515391;28;20389;-84
2023/10/04 06:59:43;;;;;;;5.70;1.80;;;;;;;;;;10530169;28;20447;-84
2023/10/04 07:04:44;;;;;;;10.20;2.38;;;;;;;;;;10528336;28;20056;-83
2023/10/04 07:09:46;;;;;;;4.30;2.00;;;;;;;;;;10528357;28;20111;-83
2023/10/04 07:14:47;;;;;;;7.10;2.00;;;;;;;;;;10530477;28;20613;-85
2023/10/04 07:19:48;;;;;;;4.90;2.08;;;;;;;;;;10529466;28;20032;-85
2023/10/04 07:24:49;;;;;;;4.88;1.98;;;;;;;;;;10529740;28;20028;-86
2023/10/04 07:29:50;;;;;;;4.43;1.80;;;;;;;;;;10529774;28;20518;-84
2023/10/04 07:34:51;;;;;;;4.35;1.77;;;;;;;;;;10527516;28;20032;-83
2023/10/04 07:39:53;;;;;;;3.88;2.08;;;;;;;;;;10528715;28;20547;-83
2023/10/04 07:44:54;;;;;;;5.78;2.22;;;;;;;;;;10528278;28;20107;-85
2023/10/04 07:49:55;;;;;;;4.60;1.48;;;;;;;;;;10530047;28;20084;-84
2023/10/04 07:54:59;;;;;;;6.78;1.70;;;;;;;;;;10528766;28;20441;-82
2023/10/04 08:00:00;;;;;;;7.70;2.10;;;;;;;;;;10526980;28;20448;-84
2023/10/04 08:05:03;;;;;;;5.28;1.80;;;;;;;;;;10528410;28;20146;-84
2023/10/04 08:10:04;;;;;;;1.27;1.10;;;;;;;;;;10527391;28;20052;-84
2023/10/04 08:15:07;;;;;;;7.00;1.48;;;;;;;;;;10528059;28;20494;-84
2023/10/04 08:20:08;;;;;;;7.18;1.92;;;;;;;;;;10527504;28;20056;-83
2023/10/04 08:25:10;;;;;;;3.25;1.35;;;;;;;;;;10519766;28;20763;-85
2023/10/04 08:30:12;;;;;;;4.10;1.55;;;;;;;;;;10523342;28;20027;-84
2023/10/04 08:35:21;;;;;;;3.13;1.25;;;;;;;;;;10527130;28;20403;-84
2023/10/04 08:40:23;;;;;;;6.70;1.50;;;;;;;;;;10527337;28;20040;-84
2023/10/04 08:45:27;;;;;;;4.20;1.60;;;;;;;;;;10527054;28;20024;-87
2023/10/04 08:50:29;;;;;;;3.65;1.55;;;;;;;;;;10526629;28;20051;-85
2023/10/04 08:55:33;;;;;;;3.33;1.50;;;;;;;;;;10535886;28;20642;-84
2023/10/04 09:00:35;;;;;;;5.47;1.40;;;;;;;;;;10541349;28;20035;-84
2023/10/04 09:05:36;;;;;;;6.30;1.90;;;;;;;;;;10540273;28;20052;-85
2023/10/04 09:10:39;;;;;;;5.10;1.80;;;;;;;;;;10540608;28;20020;-84
2023/10/04 09:15:40;;;;;;;7.28;3.00;;;;;;;;;;10525635;28;20093;-84
2023/10/04 09:20:42;;;;;;;5.00;2.08;;;;;;;;;;10539578;28;20399;-85
2023/10/04 09:25:46;;;;;;;2.80;1.88;;;;;;;;;;10540388;28;20034;-86
2023/10/04 09:30:47;;;;;;;2.73;1.30;;;;;;;;;;10540680;28;20040;-86
2023/10/04 09:35:49;;;;;;;3.13;1.60;;;;;;;;;;10540251;28;20375;-85
2023/10/04 09:40:53;;;;;;;8.95;4.68;;;;;;;;;;10540374;28;20046;-86
2023/10/04 09:45:57;;;;;;;4.70;2.60;;;;;;;;;;10539800;28;20024;-87
2023/10/04 09:51:00;;;;;;;3.42;1.60;;;;;;;;;;10540327;28;20039;-86
2023/10/04 09:56:02;;;;;;;6.18;1.63;;;;;;;;;;10540457;28;20028;-85
2023/10/04 10:01:13;;;;;;;3.80;1.88;;;;;;;;;;10539811;28;20371;-85
2023/10/04 10:06:19;;;;;;;3.60;1.63;;;;;;;;;;10480681;28;20107;-84
2023/10/04 10:11:22;;;;;;;7.43;1.90;;;;;;;;;;10479288;28;20106;-86
2023/10/04 10:16:23;;;;;;;4.43;2.50;;;;;;;;;;10491253;28;20070;-83
2023/10/04 10:21:43;;;;;;;6.13;1.70;;;;;;;;;;10491232;28;20477;-87
2023/10/04 10:26:44;;;;;;;4.20;1.35;;;;;;;;;;10490559;28;20082;-83
2023/10/04 10:31:53;;;;;;;4.85;2.08;;;;;;;;;;10458938;23;20134;-85
2023/10/04 10:37:12;;;;;;;3.83;1.80;;;;;;;;;;10430873;28;20033;-86
2023/10/04 10:42:13;;;;;;;4.68;1.83;;;;;;;;;;10412319;28;20460;-87
2023/10/04 10:47:25;;;;;;;3.55;1.65;;;;;;;;;;10430984;28;20017;-85
2023/10/04 10:52:31;;;;;;;3.97;1.80;;;;;;;;;;10447893;28;20107;-86
2023/10/04 10:57:33;;;;;;;3.17;1.80;;;;;;;;;;10447600;28;20068;-86
2023/10/04 11:02:34;;;;;;;4.05;1.70;;;;;;;;;;10447710;28;20671;-86
2023/10/04 11:07:42;;;;;;;2.88;1.58;;;;;;;;;;10483802;23;20067;-85
2023/10/04 11:12:44;;;;;;;4.10;2.42;;;;;;;;;;10488792;28;20048;-85
2023/10/04 11:17:46;;;;;;;4.30;2.40;;;;;;;;;;10487927;28;20102;-84
2023/10/04 11:22:48;;;;;;;3.53;1.80;;;;;;;;;;10488209;28;20024;-83
2023/10/04 11:27:51;;;;;;;4.32;1.95;;;;;;;;;;10469342;28;20025;-83
2023/10/04 11:32:52;;;;;;;5.45;1.40;;;;;;;;;;10488108;28;20020;-82
2023/10/04 11:37:54;;;;;;;3.65;1.92;;;;;;;;;;10487367;28;20021;-83
2023/10/04 11:43:04;;;;;;;2.75;1.20;;;;;;;;;;10487480;28;20008;-82
2023/10/04 11:48:10;;;;;;;3.65;1.92;;;;;;;;;;10487613;28;20035;-82
2023/10/04 11:53:12;;;;;;;3.60;1.70;;;;;;;;;;10469354;28;20036;-83
2023/10/04 11:58:13;;;;;;;5.68;1.67;;;;;;;;;;10468643;28;20135;-83
2023/10/04 12:03:14;;;;;;;6.72;1.98;;;;;;;;;;10468242;28;20479;-84
2023/10/04 12:08:15;;;;;;;2.20;1.58;;;;;;;;;;10486260;28;20137;-82
2023/10/04 12:13:30;;;;;;;5.55;2.05;;;;;;;;;;10485163;28;20035;-83
2023/10/04 12:18:31;;;;;;;3.05;1.98;;;;;;;;;;10484982;28;20048;-84
2023/10/04 12:23:38;;;;;;;2.92;1.50;;;;;;;;;;10468209;28;20027;-86
2023/10/04 12:28:40;;;;;;;2.80;1.48;;;;;;;;;;10465966;28;20029;-88
2023/10/04 12:33:41;;;;;;;4.63;1.80;;;;;;;;;;10485961;28;20032;-83
2023/10/04 12:38:42;;;;;;;4.32;1.70;;;;;;;;;;10484381;28;20145;-86
2023/10/04 12:43:43;;;;;;;2.80;1.63;;;;;;;;;;10484965;28;20040;-82
2023/10/04 12:48:44;;;;;;;3.70;1.80;;;;;;;;;;10483628;28;20123;-79
2023/10/04 12:53:46;;;;;;;2.70;1.55;;;;;;;;;;10491584;28;20029;-81
2023/10/04 12:58:47;;;;;;;3.08;1.60;;;;;;;;;;10482874;28;20025;-81
2023/10/04 13:03:48;;;;;;;5.85;1.20;;;;;;;;;;10485164;28;20017;-81
2023/10/04 13:08:49;;;;;;;3.15;1.55;;;;;;;;;;10484767;28;20061;-82
2023/10/04 13:13:51;;;;;;;5.05;2.22;;;;;;;;;;10484563;28;20399;-80
2023/10/04 13:18:54;;;;;;;4.05;2.05;;;;;;;;;;10467220;28;20044;-81
2023/10/04 13:23:55;;;;;;;3.90;2.05;;;;;;;;;;10470245;28;20025;-81
2023/10/04 13:28:56;;;;;;;6.78;3.42;;;;;;;;;;10484628;28;20017;-81
2023/10/04 13:33:57;;;;;;;5.22;2.40;;;;;;;;;;10484067;28;20126;-82
2023/10/04 13:38:59;;;;;;;6.13;2.80;;;;;;;;;;10484883;28;20032;-83
2023/10/04 13:44:00;;;;;;;5.40;2.45;;;;;;;;;;10494330;28;20079;-82
2023/10/04 13:49:01;;;;;;;4.53;2.20;;;;;;;;;;10480023;28;20067;-82
2023/10/04 13:54:02;;;;;;;2.67;1.85;;;;;;;;;;10491826;28;20035;-81
2023/10/04 13:59:04;;;;;;;5.55;2.20;;;;;;;;;;10491770;28;20040;-85
2023/10/04 14:04:05;;;;;;;3.60;2.15;;;;;;;;;;10491672;28;20028;-83
2023/10/04 14:09:11;;;;;;;4.00;2.00;;;;;;;;;;10482118;28;20071;-84
2023/10/04 14:14:14;;;;;;;4.53;2.10;;;;;;;;;;10490608;28;20070;-84
2023/10/04 14:19:15;;;;;;;7.07;2.58;;;;;;;;;;10490771;28;20036;-82
2023/10/04 14:24:16;;;;;;;6.22;3.03;;;;;;;;;;10491676;28;20116;-83
2023/10/04 14:29:17;;;;;;;5.22;2.63;;;;;;;;;;10490074;28;20036;-84
2023/10/04 14:34:19;;;;;;;6.57;2.65;;;;;;;;;;10490551;28;20384;-83
2023/10/04 14:39:22;;;;;;;4.80;2.03;;;;;;;;;;10489903;28;20044;-84
2023/10/04 14:44:25;;;;;;;6.43;3.35;;;;;;;;;;10489710;28;20086;-83
2023/10/04 14:49:26;;;;;;;7.60;3.65;;;;;;;;;;10484731;28;20396;-83
2023/10/04 14:54:29;;;;;;;6.75;2.45;;;;;;;;;;10488215;28;20045;-82
2023/10/04 14:59:30;;;;;;;13.18;2.85;;;;;;;;;;10488836;28;20113;-82
2023/10/04 15:04:31;;;;;;;8.27;3.75;;;;;;;;;;10488530;28;20028;-82
2023/10/04 15:09:32;;;;;;;5.20;2.42;;;;;;;;;;10487580;28;20483;-82
2023/10/04 15:14:33;;;;;;;8.98;2.80;;;;;;;;;;10487974;28;20727;-82
2023/10/04 15:19:34;;;;;;;14.63;5.10;;;;;;;;;;10487975;28;20036;-83
2023/10/04 15:24:35;;;;;;;10.32;4.85;;;;;;;;;;10487772;28;20039;-83
2023/10/04 15:29:36;;;;;;;7.93;4.10;;;;;;;;;;10468713;28;20257;-82
2023/10/04 15:34:38;;;;;;;8.40;4.70;;;;;;;;;;10487660;28;20715;-82
2023/10/04 15:39:40;;;;;;;8.02;4.00;;;;;;;;;;10485664;28;20036;-82
2023/10/04 15:44:41;;;;;;;13.40;4.78;;;;;;;;;;10485499;28;20032;-82
2023/10/04 15:49:43;;;;;;;6.88;3.85;;;;;;;;;;10487049;28;20028;-82
2023/10/04 15:54:44;;;;;;;8.15;4.25;;;;;;;;;;10486491;28;20467;-83
2023/10/04 15:59:45;;;;;;;10.68;4.25;;;;;;;;;;10488696;28;20032;-80
2023/10/04 16:04:46;;;;;;;6.88;3.58;;;;;;;;;;10486432;28;20676;-80
2023/10/04 16:09:47;;;;;;;6.95;3.08;;;;;;;;;;10473923;28;20053;-81
2023/10/04 16:14:48;;;;;;;5.13;2.95;;;;;;;;;;10488717;28;20028;-80
2023/10/04 16:19:49;;;;;;;5.90;3.30;;;;;;;;;;10486535;28;20480;-80
2023/10/04 16:24:50;;;;;;;6.93;3.45;;;;;;;;;;10475491;28;20081;-80
2023/10/04 16:29:51;;;;;;;15.27;6.50;;;;;;;;;;10485604;28;20024;-81
2023/10/04 16:34:52;;;;;;;84.65;42.25;;;;;;;;;;10485162;28;20523;-81
2023/10/04 16:40:06;;;;;;;74.53;36.13;;;;;;;;;;10485235;28;20036;-83
2023/10/04 16:45:08;;;;;;;45.78;21.05;;;;;;;;;;10483442;28;20555;-83
2023/10/04 16:50:09;;;;;;;53.92;26.23;;;;;;;;;;10484627;28;20036;-83
2023/10/04 16:55:10;;;;;;;62.03;31.02;;;;;;;;;;10484462;28;20289;-83
2023/10/04 17:00:15;;;;;;;64.38;31.92;;;;;;;;;;10484325;28;20037;-84
2023/10/04 17:05:16;;;;;;;40.28;20.90;;;;;;;;;;10484154;28;20044;-83
2023/10/04 17:10:17;;;;;;;30.95;14.10;;;;;;;;;;10483283;28;20048;-84
2023/10/04 17:15:21;;;;;;;29.25;14.15;;;;;;;;;;10485317;28;20520;-84
2023/10/04 17:20:22;;;;;;;24.50;12.32;;;;;;;;;;10493024;28;20399;-82
2023/10/04 17:25:23;;;;;;;18.65;9.38;;;;;;;;;;10491513;28;20039;-80
2023/10/04 17:30:27;;;;;;;21.13;12.02;;;;;;;;;;10491036;28;20458;-82
2023/10/04 17:35:28;;;;;;;31.60;16.42;;;;;;;;;;10476873;28;20028;-82
2023/10/04 17:40:29;;;;;;;34.85;20.45;;;;;;;;;;10485555;28;20041;-82
2023/10/04 17:45:30;;;;;;;38.08;19.73;;;;;;;;;;10484306;28;20025;-82
2023/10/04 17:50:31;;;;;;;80.28;33.72;;;;;;;;;;10491619;28;20379;-83
2023/10/04 17:55:36;;;;;;;104.72;44.78;;;;;;;;;;10490510;28;20052;-82
2023/10/04 18:00:37;;;;;;;112.75;54.05;;;;;;;;;;10490577;28;20856;-81
2023/10/04 18:05:38;;;;;;;117.07;57.83;;;;;;;;;;10473942;28;20037;-82
2023/10/04 18:10:46;;;;;;;138.23;72.22;;;;;;;;;;10470259;28;20037;-82
2023/10/04 18:15:47;;;;;;;154.02;86.65;;;;;;;;;;10489538;28;20035;-83
2023/10/04 18:20:48;;;;;;;172.15;104.60;;;;;;;;;;10484841;28;20045;-81
2023/10/04 18:25:57;;;;;;;136.27;89.97;;;;;;;;;;10481153;28;20361;-80
2023/10/04 18:30:59;;;;;;;92.35;56.63;;;;;;;;;;10488808;28;20028;-83
2023/10/04 18:36:00;;;;;;;61.45;37.92;;;;;;;;;;10483865;28;20052;-82
2023/10/04 18:41:01;;;;;;;37.50;21.95;;;;;;;;;;10487661;28;20040;-82
2023/10/04 18:46:02;;;;;;;32.33;20.08;;;;;;;;;;10484286;28;20038;-82
2023/10/04 18:51:03;;;;;;;39.35;24.13;;;;;;;;;;10489370;28;20040;-83
2023/10/04 18:56:05;;;;;;;42.63;25.20;;;;;;;;;;10487903;28;20029;-81
2023/10/04 19:01:06;;;;;;;45.85;27.17;;;;;;;;;;10487725;28;20052;-81
2023/10/04 19:06:07;;;;;;;45.22;29.05;;;;;;;;;;10478949;23;20061;-81
2023/10/04 19:11:11;;;;;;;39.55;22.90;;;;;;;;;;10444952;28;20050;-81
2023/10/04 19:16:12;;;;;;;35.13;18.27;;;;;;;;;;10445116;28;20072;-81
2023/10/04 19:21:13;;;;;;;32.35;16.38;;;;;;;;;;10444591;28;20039;-80
2023/10/04 19:26:15;;;;;;;27.35;14.95;;;;;;;;;;10446057;28;20074;-81
2023/10/04 19:31:17;;;;;;;29.55;14.73;;;;;;;;;;10442563;28;20029;-81
2023/10/04 19:36:20;;;;;;;30.23;15.52;;;;;;;;;;10434456;28;20040;-80
2023/10/04 19:41:21;;;;;;;27.42;15.32;;;;;;;;;;10444456;28;20102;-81
2023/10/04 19:46:25;;;;;;;27.92;14.50;;;;;;;;;;10444172;28;20094;-80
2023/10/04 19:51:26;;;;;;;26.77;15.00;;;;;;;;;;10444978;28;20094;-81
2023/10/04 19:56:27;;;;;;;27.73;14.43;;;;;;;;;;10444000;28;20036;-81
2023/10/04 20:01:28;;;;;;;23.70;13.77;;;;;;;;;;10443238;28;20040;-81
2023/10/04 20:06:30;;;;;;;24.23;14.27;;;;;;;;;;10444316;28;20053;-80
2023/10/04 20:11:34;;;;;;;26.73;14.23;;;;;;;;;;10443504;28;20025;-80
2023/10/04 20:16:35;;;;;;;24.90;12.20;;;;;;;;;;10444010;28;20071;-80
2023/10/04 20:21:36;;;;;;;27.35;13.10;;;;;;;;;;10443351;28;20040;-80
2023/10/04 20:26:38;;;;;;;26.40;14.07;;;;;;;;;;10443561;28;20107;-81
2023/10/04 20:31:39;;;;;;;20.40;10.52;;;;;;;;;;10442909;28;20503;-80
2023/10/04 20:36:40;;;;;;;20.80;10.90;;;;;;;;;;10442928;28;20029;-81
2023/10/04 20:41:41;;;;;;;19.38;11.63;;;;;;;;;;10442157;28;20138;-81
2023/10/04 20:46:42;;;;;;;27.25;13.55;;;;;;;;;;10442002;28;20086;-81
2023/10/04 20:51:45;;;;;;;16.63;9.45;;;;;;;;;;10441671;28;20025;-81
2023/10/04 20:56:46;;;;;;;22.02;12.27;;;;;;;;;;10442148;28;20041;-81
2023/10/04 21:01:47;;;;;;;20.90;12.43;;;;;;;;;;10440101;28;20673;-81
2023/10/04 21:06:49;;;;;;;21.02;9.80;;;;;;;;;;10451688;28;20056;-81
2023/10/04 21:11:50;;;;;;;16.75;8.80;;;;;;;;;;10477454;28;20024;-81
2023/10/04 21:16:51;;;;;;;20.88;11.85;;;;;;;;;;10472423;28;20036;-81
2023/10/04 21:21:52;;;;;;;19.52;11.80;;;;;;;;;;10469291;28;20033;-81
2023/10/04 21:26:57;;;;;;;16.20;9.18;;;;;;;;;;10476185;28;20112;-80
2023/10/04 21:31:58;;;;;;;16.03;9.90;;;;;;;;;;10481504;28;20032;-81
2023/10/04 21:37:08;;;;;;;20.60;12.98;;;;;;;;;;10483756;28;20038;-81
2023/10/04 21:42:09;;;;;;;18.58;10.50;;;;;;;;;;10484034;28;20446;-80
2023/10/04 21:47:16;;;;;;;24.77;11.43;;;;;;;;;;10484291;28;20031;-80
2023/10/04 21:52:20;;;;;;;22.30;12.30;;;;;;;;;;10484235;28;20074;-81
2023/10/04 21:57:21;;;;;;;21.90;12.52;;;;;;;;;;10483057;28;20523;-81
2023/10/04 22:02:22;;;;;;;21.15;12.32;;;;;;;;;;10486929;28;20165;-81
2023/10/04 22:07:25;;;;;;;22.05;11.57;;;;;;;;;;10464634;28;20102;-80
2023/10/04 22:12:28;;;;;;;22.35;11.25;;;;;;;;;;10449652;28;20036;-81
2023/10/04 22:17:33;;;;;;;19.33;12.07;;;;;;;;;;10450037;28;20534;-80
2023/10/04 22:22:34;;;;;;;26.77;13.13;;;;;;;;;;10448516;28;20040;-80
2023/10/04 22:27:38;;;;;;;26.65;13.90;;;;;;;;;;10448563;28;20032;-81
2023/10/04 22:32:40;;;;;;;28.05;14.25;;;;;;;;;;10448369;28;20048;-80
2023/10/04 22:37:46;;;;;;;23.23;12.73;;;;;;;;;;10448109;28;20508;-80
2023/10/04 22:42:56;;;;;;;20.70;12.35;;;;;;;;;;10447397;28;20025;-80
2023/10/04 22:48:04;;;;;;;21.58;10.13;;;;;;;;;;10461025;23;20069;-81
2023/10/04 22:53:05;;;;;;;18.65;9.68;;;;;;;;;;10447501;28;20060;-81
2023/10/04 22:58:06;;;;;;;16.77;8.93;;;;;;;;;;10446938;28;20040;-81
2023/10/04 23:03:08;;;;;;;21.33;11.65;;;;;;;;;;10447642;28;20580;-80
2023/10/04 23:08:09;;;;;;;26.77;12.80;;;;;;;;;;10447351;28;20107;-81
2023/10/04 23:13:12;;;;;;;15.65;9.13;;;;;;;;;;10445574;28;20021;-80
2023/10/04 23:23:23;;;;;;;21.80;11.60;;;;;;;;;;10446865;28;20033;-81
2023/10/04 23:28:24;;;;;;;25.55;14.23;;;;;;;;;;10443588;28;20024;-80
2023/10/04 23:33:26;;;;;;;20.83;10.48;;;;;;;;;;10446589;28;20024;-80
2023/10/04 23:43:40;;;;;;;20.98;11.80;;;;;;;;;;10445972;28;20386;-80
2023/10/04 23:48:42;;;;;;;25.52;12.13;;;;;;;;;;10476498;28;20143;-81
2023/10/04 23:58:44;;;;;;;22.13;10.60;;;;;;;;;;10486021;28;20044;-81
